< < Back
Terminal Aerodrome Forecast


Current Version              Previous Versions:   1  2  3  4  5  6  7  8  9  

Terminal Aerodrome Forecast

969
FTUS42 KJAX 191700
TAFJAX
TAF
KJAX 191732Z 1918/2018 08004KT P6SM SCT100 BKN200
     FM200200 00000KT P6SM SCT050 BKN100 OVC150
     FM200900 00000KT 5SM BR SCT050 BKN100 OVC150
     FM201500 05004KT P6SM SCT050 BKN100 OVC150=

Latest METAR

516
SAUS80 KWBC 202200
MTRJAX
METAR KJAX 202156Z 06009KT 10SM SCT047 BKN100 BKN250 16/12 A3010 RMK AO2
SLP192 T01610122


USA.gov is the U.S. government's official web portal to all federal, state and local government web resources and services.